<?xml version='1.0' encoding='UTF-8'?><gpx version="1.1" creator="JPX - https://github.com/jenetics/jpx" xmlns="http://www.topografix.com/GPX/1/1"><trk><trkseg><trkpt lat="44.60158" lon="10.1756317"><ele>957.0</ele><time>2026-04-17T22:34:31.572Z</time></trkpt><trkpt lat="44.6016045" lon="10.1757161"><ele>957.0</ele><time>2026-04-17T22:34:32.572Z</time></trkpt><trkpt lat="44.6016767" lon="10.1756749"><ele>957.0</ele><time>2026-04-17T22:34:36.572Z</time></trkpt><trkpt lat="44.6017779" lon="10.1756843"><ele>957.0</ele><time>2026-04-17T22:34:38.572Z</time></trkpt><trkpt lat="44.6018266" lon="10.1757969"><ele>957.0</ele><time>2026-04-17T22:34:40.572Z</time></trkpt><trkpt lat="44.6018982" lon="10.1756822"><ele>957.0</ele><time>2026-04-17T22:34:48.572Z</time></trkpt><trkpt lat="44.6019732" lon="10.1756533"><ele>957.0</ele><time>2026-04-17T22:34:56.572Z</time></trkpt><trkpt lat="44.6020782" lon="10.1756175"><ele>957.0</ele><time>2026-04-17T22:34:57.572Z</time></trkpt><trkpt lat="44.6020614" lon="10.1757034"><ele>957.0</ele><time>2026-04-17T22:35:03.132Z</time></trkpt><trkpt lat="44.6021358" lon="10.1757584"><ele>957.0</ele><time>2026-04-17T22:35:11.132Z</time></trkpt><trkpt lat="44.6021572" lon="10.1756364"><ele>957.0</ele><time>2026-04-17T22:35:17.132Z</time></trkpt><trkpt lat="44.6021095" lon="10.1755735"><ele>957.0</ele><time>2026-04-17T22:35:19.132Z</time></trkpt><trkpt lat="44.6021014" lon="10.1754804"><ele>957.0</ele><time>2026-04-17T22:35:23.132Z</time></trkpt><trkpt lat="44.6020829" lon="10.175567"><ele>957.0000000000001</ele><time>2026-04-17T22:35:52.153Z</time></trkpt><trkpt lat="44.6021143" lon="10.1756446"><ele>957.0</ele><time>2026-04-17T22:35:58.162Z</time></trkpt><trkpt lat="44.6021413" lon="10.1757358"><ele>957.0</ele><time>2026-04-17T22:36:09.197Z</time></trkpt><trkpt lat="44.6021743" lon="10.1758275"><ele>957.0000000000001</ele><time>2026-04-17T22:36:15.206Z</time></trkpt><trkpt lat="44.6022017" lon="10.1759251"><ele>957.0</ele><time>2026-04-17T22:36:20.133Z</time></trkpt><trkpt lat="44.6022101" lon="10.1760136"><ele>957.0</ele><time>2026-04-17T22:36:25.149Z</time></trkpt><trkpt lat="44.6021989" lon="10.1761128"><ele>956.8571428571429</ele><time>2026-04-17T22:36:30.174Z</time></trkpt><trkpt lat="44.6022141" lon="10.1762185"><ele>956.7142857142858</ele><time>2026-04-17T22:36:35.217Z</time></trkpt><trkpt lat="44.602218" lon="10.1763093"><ele>956.5714285714287</ele><time>2026-04-17T22:36:43.123Z</time></trkpt><trkpt lat="44.6021975" lon="10.1763984"><ele>956.4285714285716</ele><time>2026-04-17T22:36:48.201Z</time></trkpt><trkpt lat="44.6022215" lon="10.1764951"><ele>956.2857142857143</ele><time>2026-04-17T22:36:52.573Z</time></trkpt><trkpt lat="44.6022585" lon="10.176576"><ele>956.1428571428573</ele><time>2026-04-17T22:36:57.16Z</time></trkpt><trkpt lat="44.6022442" lon="10.1766715"><ele>956.0000000000001</ele><time>2026-04-17T22:37:04.174Z</time></trkpt><trkpt lat="44.6022146" lon="10.1767628"><ele>956.7142857142858</ele><time>2026-04-17T22:37:13.221Z</time></trkpt><trkpt lat="44.60223" lon="10.1768667"><ele>957.4285714285714</ele><time>2026-04-17T22:37:20.213Z</time></trkpt><trkpt lat="44.6022315" lon="10.1769634"><ele>958.1428571428571</ele><time>2026-04-17T22:37:27.206Z</time></trkpt><trkpt lat="44.6022114" lon="10.1770507"><ele>958.8571428571429</ele><time>2026-04-17T22:37:35.182Z</time></trkpt><trkpt lat="44.6022088" lon="10.1771399"><ele>959.5714285714284</ele><time>2026-04-17T22:37:42.174Z</time></trkpt><trkpt lat="44.6022086" lon="10.1772362"><ele>960.2857142857142</ele><time>2026-04-17T22:37:51.133Z</time></trkpt><trkpt lat="44.6022135" lon="10.1773301"><ele>961.0</ele><time>2026-04-17T22:37:57.142Z</time></trkpt><trkpt lat="44.6022194" lon="10.1774249"><ele>961.0</ele><time>2026-04-17T22:38:04.257Z</time></trkpt><trkpt lat="44.6022227" lon="10.1775287"><ele>960.9999999999999</ele><time>2026-04-17T22:38:11.133Z</time></trkpt><trkpt lat="44.6022197" lon="10.1776292"><ele>961.0</ele><time>2026-04-17T22:38:18.097Z</time></trkpt><trkpt lat="44.6022225" lon="10.1777262"><ele>961.0</ele><time>2026-04-17T22:38:23.146Z</time></trkpt><trkpt lat="44.6022725" lon="10.1778082"><ele>960.9999999999999</ele><time>2026-04-17T22:38:28.228Z</time></trkpt><trkpt lat="44.6023208" lon="10.1778827"><ele>961.0</ele><time>2026-04-17T22:38:34.181Z</time></trkpt><trkpt lat="44.6023447" lon="10.1779654"><ele>961.0</ele><time>2026-04-17T22:38:39.133Z</time></trkpt><trkpt lat="44.6023702" lon="10.1780604"><ele>961.0</ele><time>2026-04-17T22:38:45.113Z</time></trkpt><trkpt lat="44.6023986" lon="10.1781493"><ele>960.9999999999999</ele><time>2026-04-17T22:38:55.126Z</time></trkpt><trkpt lat="44.6024351" lon="10.1782276"><ele>961.0</ele><time>2026-04-17T22:39:00.184Z</time></trkpt><trkpt lat="44.6024911" lon="10.178292"><ele>961.0</ele><time>2026-04-17T22:39:06.193Z</time></trkpt><trkpt lat="44.6025408" lon="10.178366"><ele>960.9999999999999</ele><time>2026-04-17T22:39:09.143Z</time></trkpt><trkpt lat="44.6025708" lon="10.1784496"><ele>961.0</ele><time>2026-04-17T22:39:16.136Z</time></trkpt><trkpt lat="44.6026243" lon="10.1785172"><ele>961.0</ele><time>2026-04-17T22:39:21.162Z</time></trkpt><trkpt lat="44.6026688" lon="10.1785975"><ele>961.8571428571428</ele><time>2026-04-17T22:39:25.204Z</time></trkpt><trkpt lat="44.6027232" lon="10.1786696"><ele>962.7142857142856</ele><time>2026-04-17T22:39:29.247Z</time></trkpt><trkpt lat="44.6027824" lon="10.1787405"><ele>963.5714285714286</ele><time>2026-04-17T22:39:34.163Z</time></trkpt><trkpt lat="44.6028213" lon="10.1788147"><ele>964.4285714285713</ele><time>2026-04-17T22:39:41.156Z</time></trkpt><trkpt lat="44.6028552" lon="10.1788964"><ele>965.2857142857142</ele><time>2026-04-17T22:39:49.133Z</time></trkpt><trkpt lat="44.6028721" lon="10.1789942"><ele>966.1428571428571</ele><time>2026-04-17T22:39:55.122Z</time></trkpt><trkpt lat="44.6029222" lon="10.1790598"><ele>967.0</ele><time>2026-04-17T22:40:00.166Z</time></trkpt><trkpt lat="44.6029464" lon="10.1791493"><ele>963.4285714285714</ele><time>2026-04-17T22:40:07.155Z</time></trkpt><trkpt lat="44.60298" lon="10.1792246"><ele>959.8571428571429</ele><time>2026-04-17T22:40:18.193Z</time></trkpt><trkpt lat="44.6030125" lon="10.1793049"><ele>956.2857142857143</ele><time>2026-04-17T22:40:24.203Z</time></trkpt><trkpt lat="44.6030485" lon="10.1793857"><ele>952.7142857142858</ele><time>2026-04-17T22:40:30.134Z</time></trkpt><trkpt lat="44.603113" lon="10.1794537"><ele>949.1428571428571</ele><time>2026-04-17T22:40:34.145Z</time></trkpt><trkpt lat="44.6031624" lon="10.1795333"><ele>945.5714285714287</ele><time>2026-04-17T22:40:38.134Z</time></trkpt><trkpt lat="44.6032148" lon="10.1795981"><ele>942.0000000000001</ele><time>2026-04-17T22:40:43.19Z</time></trkpt><trkpt lat="44.6032421" lon="10.1796886"><ele>942.0000000000001</ele><time>2026-04-17T22:40:51.189Z</time></trkpt><trkpt lat="44.6032726" lon="10.1797674"><ele>942.0</ele><time>2026-04-17T22:40:57.198Z</time></trkpt><trkpt lat="44.6033082" lon="10.1798465"><ele>942.0000000000001</ele><time>2026-04-17T22:41:02.896Z</time></trkpt><trkpt lat="44.6033558" lon="10.1799261"><ele>942.0000000000001</ele><time>2026-04-17T22:41:08.85Z</time></trkpt><trkpt lat="44.6034114" lon="10.1800007"><ele>942.0</ele><time>2026-04-17T22:41:15.225Z</time></trkpt><trkpt lat="44.6034377" lon="10.1800828"><ele>942.0000000000001</ele><time>2026-04-17T22:41:21.133Z</time></trkpt><trkpt lat="44.6034707" lon="10.1801648"><ele>942.0000000000001</ele><time>2026-04-17T22:41:33.433Z</time></trkpt><trkpt lat="44.6035246" lon="10.1802189"><ele>941.857142857143</ele><time>2026-04-17T22:41:38.156Z</time></trkpt><trkpt lat="44.6035953" lon="10.1802637"><ele>941.7142857142858</ele><time>2026-04-17T22:41:42.212Z</time></trkpt><trkpt lat="44.6036545" lon="10.1803323"><ele>941.5714285714286</ele><time>2026-04-17T22:41:47.238Z</time></trkpt><trkpt lat="44.6037019" lon="10.1804001"><ele>941.4285714285714</ele><time>2026-04-17T22:41:53.137Z</time></trkpt><trkpt lat="44.6037384" lon="10.1804831"><ele>941.2857142857142</ele><time>2026-04-17T22:42:00.062Z</time></trkpt><trkpt lat="44.6037461" lon="10.1805774"><ele>941.142857142857</ele><time>2026-04-17T22:42:05.232Z</time></trkpt><trkpt lat="44.6037586" lon="10.1806651"><ele>940.9999999999999</ele><time>2026-04-17T22:42:11.165Z</time></trkpt><trkpt lat="44.6037777" lon="10.1807512"><ele>940.9999999999999</ele><time>2026-04-17T22:42:17.174Z</time></trkpt><trkpt lat="44.6037968" lon="10.1808366"><ele>941.0</ele><time>2026-04-17T22:42:28.209Z</time></trkpt><trkpt lat="44.6038182" lon="10.1809207"><ele>940.9999999999999</ele><time>2026-04-17T22:42:36.185Z</time></trkpt><trkpt lat="44.6038696" lon="10.1809772"><ele>940.9999999999999</ele><time>2026-04-17T22:42:42.156Z</time></trkpt><trkpt lat="44.6039249" lon="10.1810486"><ele>941.0</ele><time>2026-04-17T22:42:47.22Z</time></trkpt><trkpt lat="44.6039761" lon="10.1811094"><ele>940.9999999999999</ele><time>2026-04-17T22:42:52.137Z</time></trkpt><trkpt lat="44.6040358" lon="10.1811763"><ele>940.9999999999999</ele><time>2026-04-17T22:42:56.179Z</time></trkpt><trkpt lat="44.6040986" lon="10.1811857"><ele>940.9999999999999</ele><time>2026-04-17T22:43:03.172Z</time></trkpt><trkpt lat="44.604171" lon="10.1811619"><ele>941.0</ele><time>2026-04-17T22:43:13.224Z</time></trkpt><trkpt lat="44.604239" lon="10.1811675"><ele>940.9999999999999</ele><time>2026-04-17T22:43:23.167Z</time></trkpt><trkpt lat="44.6042983" lon="10.1812103"><ele>940.9999999999999</ele><time>2026-04-17T22:43:28.193Z</time></trkpt><trkpt lat="44.6043578" lon="10.181254"><ele>941.0</ele><time>2026-04-17T22:43:33.219Z</time></trkpt><trkpt lat="44.6044235" lon="10.1812732"><ele>940.9999999999999</ele><time>2026-04-17T22:43:37.134Z</time></trkpt><trkpt lat="44.6044829" lon="10.1813221"><ele>940.9999999999999</ele><time>2026-04-17T22:43:43.161Z</time></trkpt><trkpt lat="44.6045413" lon="10.1813621"><ele>937.9999999999999</ele><time>2026-04-17T22:43:48.165Z</time></trkpt><trkpt lat="44.6046068" lon="10.1814006"><ele>935.0</ele><time>2026-04-17T22:43:54.196Z</time></trkpt><trkpt lat="44.6046819" lon="10.1814208"><ele>931.9999999999999</ele><time>2026-04-17T22:43:59.059Z</time></trkpt><trkpt lat="44.604747" lon="10.1814067"><ele>928.9999999999999</ele><time>2026-04-17T22:44:05.041Z</time></trkpt><trkpt lat="44.6048204" lon="10.1814304"><ele>926.0</ele><time>2026-04-17T22:44:14.19Z</time></trkpt><trkpt lat="44.6048737" lon="10.1815076"><ele>922.9999999999999</ele><time>2026-04-17T22:44:18.134Z</time></trkpt><trkpt lat="44.6048718" lon="10.1816104"><ele>919.9999999999999</ele><time>2026-04-17T22:44:25.224Z</time></trkpt><trkpt lat="44.6048265" lon="10.1816764"><ele>919.9999999999999</ele><time>2026-04-17T22:44:33.199Z</time></trkpt><trkpt lat="44.6047752" lon="10.1817404"><ele>920.0</ele><time>2026-04-17T22:44:40.115Z</time></trkpt><trkpt lat="44.6047433" lon="10.1818202"><ele>919.9999999999999</ele><time>2026-04-17T22:44:46.586Z</time></trkpt><trkpt lat="44.6047114" lon="10.1818996"><ele>919.9999999999999</ele><time>2026-04-17T22:44:55.16Z</time></trkpt><trkpt lat="44.6047027" lon="10.1819876"><ele>920.0</ele><time>2026-04-17T22:45:00.186Z</time></trkpt><trkpt lat="44.6046725" lon="10.1820717"><ele>919.9999999999999</ele><time>2026-04-17T22:45:07.215Z</time></trkpt><trkpt lat="44.6046456" lon="10.1821671"><ele>919.9999999999999</ele><time>2026-04-17T22:45:15.215Z</time></trkpt><trkpt lat="44.6046213" lon="10.1822652"><ele>920.9999999999999</ele><time>2026-04-17T22:45:21.163Z</time></trkpt><trkpt lat="44.6046047" lon="10.1823515"><ele>922.0</ele><time>2026-04-17T22:45:25.206Z</time></trkpt><trkpt lat="44.6045609" lon="10.1824365"><ele>922.9999999999999</ele><time>2026-04-17T22:45:30.134Z</time></trkpt><trkpt lat="44.6045112" lon="10.1824947"><ele>923.9999999999999</ele><time>2026-04-17T22:45:34.165Z</time></trkpt><trkpt lat="44.604469" lon="10.1825834"><ele>925.0</ele><time>2026-04-17T22:45:41.243Z</time></trkpt><trkpt lat="44.6044366" lon="10.1826653"><ele>925.9999999999999</ele><time>2026-04-17T22:45:49.243Z</time></trkpt><trkpt lat="44.6043785" lon="10.1827214"><ele>926.9999999999999</ele><time>2026-04-17T22:45:57.217Z</time></trkpt><trkpt lat="44.6043561" lon="10.1828146"><ele>926.9999999999999</ele><time>2026-04-17T22:46:04.209Z</time></trkpt><trkpt lat="44.6043371" lon="10.1829169"><ele>927.0</ele><time>2026-04-17T22:46:09.227Z</time></trkpt><trkpt lat="44.6042895" lon="10.1830031"><ele>926.9999999999999</ele><time>2026-04-17T22:46:15.244Z</time></trkpt><trkpt lat="44.6042415" lon="10.1830605"><ele>926.9999999999999</ele><time>2026-04-17T22:46:20.16Z</time></trkpt><trkpt lat="44.6041875" lon="10.1831305"><ele>927.0</ele><time>2026-04-17T22:46:27.153Z</time></trkpt><trkpt lat="44.6041367" lon="10.1832019"><ele>926.9999999999999</ele><time>2026-04-17T22:46:33.092Z</time></trkpt><trkpt lat="44.6040837" lon="10.1832765"><ele>926.9999999999999</ele><time>2026-04-17T22:46:37.204Z</time></trkpt><trkpt lat="44.6040299" lon="10.1833349"><ele>924.5714285714284</ele><time>2026-04-17T22:46:42.229Z</time></trkpt><trkpt lat="44.6040005" lon="10.1834395"><ele>922.1428571428571</ele><time>2026-04-17T22:46:49.221Z</time></trkpt><trkpt lat="44.6039823" lon="10.1835274"><ele>919.7142857142857</ele><time>2026-04-17T22:46:55.23Z</time></trkpt><trkpt lat="44.6039412" lon="10.1835969"><ele>917.2857142857142</ele><time>2026-04-17T22:47:03.134Z</time></trkpt><trkpt lat="44.6039038" lon="10.1836813"><ele>914.8571428571429</ele><time>2026-04-17T22:47:08.134Z</time></trkpt><trkpt lat="44.6038707" lon="10.1837573"><ele>912.4285714285714</ele><time>2026-04-17T22:47:13.175Z</time></trkpt><trkpt lat="44.6038478" lon="10.1838536"><ele>910.0</ele><time>2026-04-17T22:47:20.141Z</time></trkpt><trkpt lat="44.603823" lon="10.1839438"><ele>908.0</ele><time>2026-04-17T22:47:26.15Z</time></trkpt><trkpt lat="44.6038039" lon="10.1840366"><ele>906.0</ele><time>2026-04-17T22:47:31.176Z</time></trkpt><trkpt lat="44.6037858" lon="10.1841449"><ele>904.0</ele><time>2026-04-17T22:47:36.223Z</time></trkpt><trkpt lat="44.603789" lon="10.1842367"><ele>902.0</ele><time>2026-04-17T22:47:42.21Z</time></trkpt><trkpt lat="44.6038033" lon="10.1843261"><ele>900.0</ele><time>2026-04-17T22:47:51.169Z</time></trkpt><trkpt lat="44.603803" lon="10.1844197"><ele>898.0</ele><time>2026-04-17T22:47:58.161Z</time></trkpt><trkpt lat="44.6037772" lon="10.184515"><ele>896.0</ele><time>2026-04-17T22:48:04.192Z</time></trkpt><trkpt lat="44.603757" lon="10.1846108"><ele>896.0</ele><time>2026-04-17T22:48:10.251Z</time></trkpt><trkpt lat="44.6037459" lon="10.184698"><ele>896.0</ele><time>2026-04-17T22:48:17.172Z</time></trkpt><trkpt lat="44.6036974" lon="10.1847765"><ele>896.0</ele><time>2026-04-17T22:48:23.181Z</time></trkpt><trkpt lat="44.6036659" lon="10.1848698"><ele>896.0</ele><time>2026-04-17T22:48:29.189Z</time></trkpt><trkpt lat="44.6036218" lon="10.1849355"><ele>896.0</ele><time>2026-04-17T22:48:34.078Z</time></trkpt><trkpt lat="44.6035793" lon="10.1850089"><ele>896.0</ele><time>2026-04-17T22:48:39.241Z</time></trkpt><trkpt lat="44.6035266" lon="10.1850784"><ele>896.0</ele><time>2026-04-17T22:48:45.14Z</time></trkpt><trkpt lat="44.6034698" lon="10.1851403"><ele>896.2857142857142</ele><time>2026-04-17T22:48:51.149Z</time></trkpt><trkpt lat="44.6034217" lon="10.1852035"><ele>896.5714285714286</ele><time>2026-04-17T22:48:56.175Z</time></trkpt><trkpt lat="44.6034017" lon="10.1853035"><ele>896.8571428571429</ele><time>2026-04-17T22:49:02.167Z</time></trkpt><trkpt lat="44.6033967" lon="10.1853988"><ele>897.1428571428571</ele><time>2026-04-17T22:49:08.094Z</time></trkpt><trkpt lat="44.6033754" lon="10.1854882"><ele>897.4285714285713</ele><time>2026-04-17T22:49:14.201Z</time></trkpt><trkpt lat="44.603327" lon="10.1855474"><ele>897.7142857142857</ele><time>2026-04-17T22:49:19.839Z</time></trkpt><trkpt lat="44.6032816" lon="10.1856223"><ele>898.0</ele><time>2026-04-17T22:49:25.236Z</time></trkpt><trkpt lat="44.6032592" lon="10.1857116"><ele>898.0</ele><time>2026-04-17T22:49:31.135Z</time></trkpt><trkpt lat="44.6032698" lon="10.1858131"><ele>897.9999999999999</ele><time>2026-04-17T22:49:39.22Z</time></trkpt><trkpt lat="44.6032767" lon="10.1859107"><ele>898.0</ele><time>2026-04-17T22:49:46.212Z</time></trkpt><trkpt lat="44.6033108" lon="10.1859967"><ele>898.0</ele><time>2026-04-17T22:49:54.204Z</time></trkpt><trkpt lat="44.6033207" lon="10.1860871"><ele>897.9999999999999</ele><time>2026-04-17T22:50:01.18Z</time></trkpt><trkpt lat="44.6033493" lon="10.1861702"><ele>898.0</ele><time>2026-04-17T22:50:07.111Z</time></trkpt><trkpt lat="44.6033919" lon="10.186252"><ele>898.0</ele><time>2026-04-17T22:50:14.168Z</time></trkpt><trkpt lat="44.6034422" lon="10.1863198"><ele>898.0</ele><time>2026-04-17T22:50:20.19Z</time></trkpt><trkpt lat="44.6034823" lon="10.1863937"><ele>897.9999999999999</ele><time>2026-04-17T22:50:26.122Z</time></trkpt><trkpt lat="44.6035127" lon="10.1864871"><ele>898.0</ele><time>2026-04-17T22:50:31.225Z</time></trkpt><trkpt lat="44.6035211" lon="10.1865879"><ele>898.0</ele><time>2026-04-17T22:50:36.142Z</time></trkpt><trkpt lat="44.6035236" lon="10.1866912"><ele>897.9999999999999</ele><time>2026-04-17T22:50:41.167Z</time></trkpt><trkpt lat="44.6035316" lon="10.1867854"><ele>898.0</ele><time>2026-04-17T22:50:47.176Z</time></trkpt><trkpt lat="44.6035239" lon="10.1868747"><ele>898.0</ele><time>2026-04-17T22:50:54.168Z</time></trkpt><trkpt lat="44.6034976" lon="10.1869681"><ele>897.8571428571428</ele><time>2026-04-17T22:51:02.144Z</time></trkpt><trkpt lat="44.6034661" lon="10.1870486"><ele>897.7142857142856</ele><time>2026-04-17T22:51:08.095Z</time></trkpt><trkpt lat="44.6034438" lon="10.1871406"><ele>897.5714285714286</ele><time>2026-04-17T22:51:15.145Z</time></trkpt><trkpt lat="44.6034308" lon="10.1872311"><ele>897.4285714285713</ele><time>2026-04-17T22:51:21.154Z</time></trkpt><trkpt lat="44.6034185" lon="10.187333"><ele>897.2857142857142</ele><time>2026-04-17T22:51:32.189Z</time></trkpt><trkpt lat="44.603408" lon="10.187425"><ele>897.1428571428571</ele><time>2026-04-17T22:51:38.198Z</time></trkpt><trkpt lat="44.6033974" lon="10.1875232"><ele>897.0</ele><time>2026-04-17T22:51:45.191Z</time></trkpt><trkpt lat="44.6033883" lon="10.1876242"><ele>896.0</ele><time>2026-04-17T22:51:51.236Z</time></trkpt><trkpt lat="44.6033762" lon="10.1877249"><ele>895.0</ele><time>2026-04-17T22:51:57.961Z</time></trkpt><trkpt lat="44.6033632" lon="10.1878115"><ele>894.0</ele><time>2026-04-17T22:52:04.153Z</time></trkpt><trkpt lat="44.6033455" lon="10.1879055"><ele>893.0</ele><time>2026-04-17T22:52:10.21Z</time></trkpt><trkpt lat="44.603332" lon="10.1879977"><ele>892.0</ele><time>2026-04-17T22:52:15.135Z</time></trkpt><trkpt lat="44.6033364" lon="10.1881022"><ele>891.0</ele><time>2026-04-17T22:52:22.229Z</time></trkpt><trkpt lat="44.6033477" lon="10.1882064"><ele>890.0</ele><time>2026-04-17T22:52:29.135Z</time></trkpt><trkpt lat="44.6033666" lon="10.1883068"><ele>889.4285714285714</ele><time>2026-04-17T22:52:35.23Z</time></trkpt><trkpt lat="44.6033679" lon="10.1884003"><ele>888.8571428571428</ele><time>2026-04-17T22:52:41.088Z</time></trkpt><trkpt lat="44.6033947" lon="10.1884879"><ele>888.2857142857142</ele><time>2026-04-17T22:52:46.158Z</time></trkpt><trkpt lat="44.6034129" lon="10.1885823"><ele>887.7142857142858</ele><time>2026-04-17T22:52:52.176Z</time></trkpt><trkpt lat="44.6034387" lon="10.1886766"><ele>887.1428571428571</ele><time>2026-04-17T22:53:01.135Z</time></trkpt><trkpt lat="44.6034489" lon="10.1887725"><ele>886.5714285714286</ele><time>2026-04-17T22:53:06.15Z</time></trkpt><trkpt lat="44.6034551" lon="10.1888737"><ele>886.0</ele><time>2026-04-17T22:53:12.159Z</time></trkpt><trkpt lat="44.6034923" lon="10.1889599"><ele>886.5714285714286</ele><time>2026-04-17T22:53:17.184Z</time></trkpt><trkpt lat="44.6035081" lon="10.1890535"><ele>887.1428571428571</ele><time>2026-04-17T22:53:25.16Z</time></trkpt><trkpt lat="44.6035143" lon="10.1891479"><ele>887.7142857142858</ele><time>2026-04-17T22:53:31.169Z</time></trkpt><trkpt lat="44.6035285" lon="10.1892387"><ele>888.2857142857142</ele><time>2026-04-17T22:53:35.183Z</time></trkpt><trkpt lat="44.6035288" lon="10.1893297"><ele>888.8571428571428</ele><time>2026-04-17T22:53:42.203Z</time></trkpt><trkpt lat="44.6035239" lon="10.1894298"><ele>889.4285714285714</ele><time>2026-04-17T22:53:52.146Z</time></trkpt><trkpt lat="44.6035154" lon="10.1895179"><ele>890.0</ele><time>2026-04-17T22:54:01.214Z</time></trkpt><trkpt lat="44.6035194" lon="10.1896182"><ele>890.0</ele><time>2026-04-17T22:54:19.241Z</time></trkpt><trkpt lat="44.6035369" lon="10.1897073"><ele>890.0</ele><time>2026-04-17T22:54:25.14Z</time></trkpt><trkpt lat="44.6035722" lon="10.1897812"><ele>890.0</ele><time>2026-04-17T22:54:31.149Z</time></trkpt><trkpt lat="44.6036051" lon="10.18986"><ele>890.0</ele><time>2026-04-17T22:54:36.175Z</time></trkpt><trkpt lat="44.6036147" lon="10.1899514"><ele>890.0</ele><time>2026-04-17T22:54:44.151Z</time></trkpt><trkpt lat="44.603647" lon="10.1900326"><ele>890.0</ele><time>2026-04-17T22:54:52.135Z</time></trkpt><trkpt lat="44.6036769" lon="10.1901219"><ele>890.0</ele><time>2026-04-17T22:55:00.211Z</time></trkpt><trkpt lat="44.6036701" lon="10.1902348"><ele>885.0</ele><time>2026-04-17T22:55:11.188Z</time></trkpt><trkpt lat="44.6037068" lon="10.1903167"><ele>880.0</ele><time>2026-04-17T22:55:17.255Z</time></trkpt><trkpt lat="44.603739" lon="10.1904133"><ele>875.0</ele><time>2026-04-17T22:55:24.138Z</time></trkpt><trkpt lat="44.6037468" lon="10.1905245"><ele>870.0</ele><time>2026-04-17T22:55:29.164Z</time></trkpt><trkpt lat="44.6037515" lon="10.1906127"><ele>865.0</ele><time>2026-04-17T22:55:34.189Z</time></trkpt><trkpt lat="44.6037712" lon="10.1907062"><ele>860.0</ele><time>2026-04-17T22:55:40.198Z</time></trkpt><trkpt lat="44.6037749" lon="10.1908078"><ele>855.0</ele><time>2026-04-17T22:55:48.174Z</time></trkpt><trkpt lat="44.6037897" lon="10.1909095"><ele>855.0</ele><time>2026-04-17T22:55:54.183Z</time></trkpt><trkpt lat="44.6038087" lon="10.1910052"><ele>855.0</ele><time>2026-04-17T22:56:01.176Z</time></trkpt><trkpt lat="44.6038215" lon="10.1911023"><ele>855.0</ele><time>2026-04-17T22:56:08.168Z</time></trkpt><trkpt lat="44.6038487" lon="10.1911895"><ele>855.0</ele><time>2026-04-17T22:56:15.161Z</time></trkpt><trkpt lat="44.6038673" lon="10.1912869"><ele>855.0</ele><time>2026-04-17T22:56:21.227Z</time></trkpt><trkpt lat="44.6038838" lon="10.1913724"><ele>855.0</ele><time>2026-04-17T22:56:26.196Z</time></trkpt><trkpt lat="44.6039005" lon="10.1914633"><ele>855.0</ele><time>2026-04-17T22:56:32.205Z</time></trkpt><trkpt lat="44.603932" lon="10.1915571"><ele>855.4285714285714</ele><time>2026-04-17T22:56:49.126Z</time></trkpt><trkpt lat="44.603986" lon="10.1916107"><ele>855.8571428571428</ele><time>2026-04-17T22:56:54.157Z</time></trkpt><trkpt lat="44.6040267" lon="10.1916817"><ele>856.2857142857142</ele><time>2026-04-17T22:57:01.159Z</time></trkpt><trkpt lat="44.6040276" lon="10.1917737"><ele>856.7142857142858</ele><time>2026-04-17T22:57:06.185Z</time></trkpt><trkpt lat="44.6040315" lon="10.1918699"><ele>857.1428571428571</ele><time>2026-04-17T22:57:12.194Z</time></trkpt><trkpt lat="44.6040501" lon="10.1919564"><ele>857.5714285714286</ele><time>2026-04-17T22:57:17.172Z</time></trkpt><trkpt lat="44.6040712" lon="10.1920594"><ele>858.0</ele><time>2026-04-17T22:57:23.135Z</time></trkpt><trkpt lat="44.6040993" lon="10.1921475"><ele>858.0</ele><time>2026-04-17T22:57:28.146Z</time></trkpt><trkpt lat="44.604129" lon="10.1922304"><ele>858.0</ele><time>2026-04-17T22:57:33.172Z</time></trkpt><trkpt lat="44.604167" lon="10.1923075"><ele>858.0</ele><time>2026-04-17T22:57:38.198Z</time></trkpt><trkpt lat="44.6042072" lon="10.1923861"><ele>858.0</ele><time>2026-04-17T22:57:45.19Z</time></trkpt><trkpt lat="44.6042428" lon="10.1924607"><ele>858.0</ele><time>2026-04-17T22:57:51.199Z</time></trkpt><trkpt lat="44.6042629" lon="10.192552"><ele>858.0</ele><time>2026-04-17T22:57:56.225Z</time></trkpt><trkpt lat="44.6042679" lon="10.1926602"><ele>858.0</ele><time>2026-04-17T22:58:02.171Z</time></trkpt><trkpt lat="44.604295" lon="10.192753"><ele>857.7142857142858</ele><time>2026-04-17T22:58:07.151Z</time></trkpt><trkpt lat="44.604351" lon="10.1928206"><ele>857.4285714285714</ele><time>2026-04-17T22:58:13.112Z</time></trkpt><trkpt lat="44.604415" lon="10.1928636"><ele>857.1428571428571</ele><time>2026-04-17T22:58:18.758Z</time></trkpt><trkpt lat="44.6044182" lon="10.1929575"><ele>856.8571428571429</ele><time>2026-04-17T22:58:24.137Z</time></trkpt><trkpt lat="44.6044275" lon="10.1930533"><ele>856.5714285714286</ele><time>2026-04-17T22:58:30.204Z</time></trkpt><trkpt lat="44.6044411" lon="10.1931474"><ele>856.2857142857143</ele><time>2026-04-17T22:58:37.196Z</time></trkpt><trkpt lat="44.6044587" lon="10.1932423"><ele>856.0</ele><time>2026-04-17T22:58:45.172Z</time></trkpt><trkpt lat="44.6044813" lon="10.1933403"><ele>855.4285714285714</ele><time>2026-04-17T22:58:52.164Z</time></trkpt><trkpt lat="44.6045031" lon="10.1934352"><ele>854.8571428571429</ele><time>2026-04-17T22:58:58.173Z</time></trkpt><trkpt lat="44.6044938" lon="10.1935291"><ele>854.2857142857142</ele><time>2026-04-17T22:59:03.199Z</time></trkpt><trkpt lat="44.604502" lon="10.1936285"><ele>853.7142857142858</ele><time>2026-04-17T22:59:09.208Z</time></trkpt><trkpt lat="44.6044901" lon="10.1937274"><ele>853.1428571428571</ele><time>2026-04-17T22:59:16.201Z</time></trkpt><trkpt lat="44.6044829" lon="10.1938174"><ele>852.5714285714286</ele><time>2026-04-17T22:59:23.193Z</time></trkpt><trkpt lat="44.6044609" lon="10.1939054"><ele>852.0</ele><time>2026-04-17T22:59:29.202Z</time></trkpt><trkpt lat="44.604457" lon="10.194012"><ele>851.5714285714286</ele><time>2026-04-17T22:59:35.211Z</time></trkpt><trkpt lat="44.6044438" lon="10.1940989"><ele>851.1428571428571</ele><time>2026-04-17T22:59:40.046Z</time></trkpt><trkpt lat="44.6044503" lon="10.1941918"><ele>850.7142857142858</ele><time>2026-04-17T22:59:46.137Z</time></trkpt><trkpt lat="44.6044245" lon="10.1942778"><ele>850.2857142857142</ele><time>2026-04-17T22:59:53.216Z</time></trkpt><trkpt lat="44.6044012" lon="10.1943762"><ele>849.8571428571429</ele><time>2026-04-17T22:59:59.405Z</time></trkpt><trkpt lat="44.6043754" lon="10.1944618"><ele>849.4285714285714</ele><time>2026-04-17T23:00:05.148Z</time></trkpt><trkpt lat="44.6043431" lon="10.1945386"><ele>849.0</ele><time>2026-04-17T23:00:12.14Z</time></trkpt><trkpt lat="44.6043302" lon="10.1946286"><ele>849.0000000000001</ele><time>2026-04-17T23:00:34.209Z</time></trkpt><trkpt lat="44.6043065" lon="10.1947207"><ele>849.0</ele><time>2026-04-17T23:01:00.212Z</time></trkpt><trkpt lat="44.604288" lon="10.1948081"><ele>849.0</ele><time>2026-04-17T23:01:05.237Z</time></trkpt><trkpt lat="44.6042728" lon="10.1948997"><ele>849.0</ele><time>2026-04-17T23:01:25.06Z</time></trkpt><trkpt lat="44.6042559" lon="10.1949964"><ele>849.0</ele><time>2026-04-17T23:01:31.122Z</time></trkpt><trkpt lat="44.6042396" lon="10.1950851"><ele>849.0000000000001</ele><time>2026-04-17T23:01:38.232Z</time></trkpt><trkpt lat="44.604217" lon="10.1951767"><ele>849.0</ele><time>2026-04-17T23:01:43.984Z</time></trkpt><trkpt lat="44.6042224" lon="10.1952748"><ele>847.7142857142858</ele><time>2026-04-17T23:01:49.158Z</time></trkpt><trkpt lat="44.6042246" lon="10.1953659"><ele>846.4285714285714</ele><time>2026-04-17T23:01:53.2Z</time></trkpt><trkpt lat="44.6042264" lon="10.1954654"><ele>845.1428571428571</ele><time>2026-04-17T23:01:59.209Z</time></trkpt><trkpt lat="44.6042104" lon="10.1955518"><ele>843.8571428571429</ele><time>2026-04-17T23:02:05.218Z</time></trkpt><trkpt lat="44.604183" lon="10.195659"><ele>842.5714285714286</ele><time>2026-04-17T23:02:10.136Z</time></trkpt><trkpt lat="44.6041658" lon="10.1957476"><ele>841.2857142857143</ele><time>2026-04-17T23:02:15.466Z</time></trkpt><trkpt lat="44.6041474" lon="10.1958401"><ele>840.0</ele><time>2026-04-17T23:02:22.153Z</time></trkpt><trkpt lat="44.6041058" lon="10.1959141"><ele>838.8571428571429</ele><time>2026-04-17T23:02:30.136Z</time></trkpt><trkpt lat="44.6040732" lon="10.1960015"><ele>837.7142857142858</ele><time>2026-04-17T23:02:37.376Z</time></trkpt><trkpt lat="44.60406" lon="10.1961027"><ele>836.5714285714286</ele><time>2026-04-17T23:02:43.24Z</time></trkpt><trkpt lat="44.604054" lon="10.1962049"><ele>835.4285714285714</ele><time>2026-04-17T23:02:49.139Z</time></trkpt><trkpt lat="44.604037" lon="10.1963022"><ele>834.2857142857143</ele><time>2026-04-17T23:02:55.149Z</time></trkpt><trkpt lat="44.6040174" lon="10.1963893"><ele>833.1428571428571</ele><time>2026-04-17T23:03:01.158Z</time></trkpt><trkpt lat="44.6040118" lon="10.1964801"><ele>832.0</ele><time>2026-04-17T23:03:10.226Z</time></trkpt><trkpt lat="44.6039864" lon="10.1965652"><ele>830.2857142857142</ele><time>2026-04-17T23:03:18.201Z</time></trkpt><trkpt lat="44.6039587" lon="10.1966577"><ele>828.5714285714287</ele><time>2026-04-17T23:03:24.083Z</time></trkpt><trkpt lat="44.6039334" lon="10.1967424"><ele>826.8571428571429</ele><time>2026-04-17T23:03:30.22Z</time></trkpt><trkpt lat="44.6039188" lon="10.1968335"><ele>825.1428571428571</ele><time>2026-04-17T23:03:40.162Z</time></trkpt><trkpt lat="44.6038782" lon="10.196916"><ele>823.4285714285713</ele><time>2026-04-17T23:03:47.154Z</time></trkpt><trkpt lat="44.603843" lon="10.1969921"><ele>821.7142857142858</ele><time>2026-04-17T23:03:54.147Z</time></trkpt><trkpt lat="44.6038258" lon="10.1970864"><ele>820.0</ele><time>2026-04-17T23:04:01.139Z</time></trkpt><trkpt lat="44.603789" lon="10.1971664"><ele>820.0</ele><time>2026-04-17T23:04:12.174Z</time></trkpt><trkpt lat="44.6037702" lon="10.1972593"><ele>820.0</ele><time>2026-04-17T23:04:19.218Z</time></trkpt><trkpt lat="44.6037638" lon="10.1973572"><ele>820.0</ele><time>2026-04-17T23:04:24.134Z</time></trkpt><trkpt lat="44.6037736" lon="10.1974507"><ele>820.0</ele><time>2026-04-17T23:04:30.202Z</time></trkpt><trkpt lat="44.6038117" lon="10.1975212"><ele>820.0</ele><time>2026-04-17T23:04:39.161Z</time></trkpt><trkpt lat="44.60387" lon="10.1975878"><ele>820.0</ele><time>2026-04-17T23:04:44.186Z</time></trkpt><trkpt lat="44.6039313" lon="10.1976443"><ele>820.0</ele><time>2026-04-17T23:04:49.212Z</time></trkpt><trkpt lat="44.6039822" lon="10.1977072"><ele>819.2857142857143</ele><time>2026-04-17T23:04:55.263Z</time></trkpt><trkpt lat="44.6040391" lon="10.1977677"><ele>818.5714285714286</ele><time>2026-04-17T23:05:02.213Z</time></trkpt><trkpt lat="44.6040748" lon="10.1978434"><ele>817.8571428571429</ele><time>2026-04-17T23:05:09.206Z</time></trkpt><trkpt lat="44.6041059" lon="10.1979209"><ele>817.1428571428571</ele><time>2026-04-17T23:05:16.198Z</time></trkpt><trkpt lat="44.6041254" lon="10.1980107"><ele>816.4285714285713</ele><time>2026-04-17T23:05:22.207Z</time></trkpt><trkpt lat="44.6041396" lon="10.1981034"><ele>815.7142857142857</ele><time>2026-04-17T23:05:29.241Z</time></trkpt><trkpt lat="44.6041554" lon="10.1981946"><ele>815.0</ele><time>2026-04-17T23:05:37.175Z</time></trkpt><trkpt lat="44.6041524" lon="10.1982842"><ele>816.4285714285714</ele><time>2026-04-17T23:05:43.185Z</time></trkpt><trkpt lat="44.6041477" lon="10.1983762"><ele>817.8571428571429</ele><time>2026-04-17T23:05:50.177Z</time></trkpt><trkpt lat="44.6041597" lon="10.1984646"><ele>819.2857142857142</ele><time>2026-04-17T23:05:58.153Z</time></trkpt><trkpt lat="44.6041581" lon="10.1985613"><ele>820.7142857142858</ele><time>2026-04-17T23:06:06.136Z</time></trkpt><trkpt lat="44.6041441" lon="10.1986618"><ele>822.1428571428572</ele><time>2026-04-17T23:06:13.23Z</time></trkpt><trkpt lat="44.6041348" lon="10.1987509"><ele>823.5714285714286</ele><time>2026-04-17T23:06:20.222Z</time></trkpt><trkpt lat="44.6041421" lon="10.1988426"><ele>825.0</ele><time>2026-04-17T23:06:29.223Z</time></trkpt><trkpt lat="44.6041447" lon="10.1989403"><ele>827.0</ele><time>2026-04-17T23:06:37.188Z</time></trkpt><trkpt lat="44.6041505" lon="10.1990346"><ele>829.0</ele><time>2026-04-17T23:06:45.242Z</time></trkpt><trkpt lat="44.6041467" lon="10.1991352"><ele>831.0</ele><time>2026-04-17T23:06:54.202Z</time></trkpt><trkpt lat="44.6041262" lon="10.199227"><ele>833.0</ele><time>2026-04-17T23:07:00.211Z</time></trkpt><trkpt lat="44.6041194" lon="10.1993186"><ele>835.0</ele><time>2026-04-17T23:07:08.187Z</time></trkpt><trkpt lat="44.6041765" lon="10.1993723"><ele>837.0</ele><time>2026-04-17T23:07:28.181Z</time></trkpt><trkpt lat="44.6042451" lon="10.1993637"><ele>839.0</ele><time>2026-04-17T23:07:34.185Z</time></trkpt><trkpt lat="44.6043088" lon="10.1993719"><ele>839.0</ele><time>2026-04-17T23:07:40.199Z</time></trkpt><trkpt lat="44.6043785" lon="10.1993877"><ele>839.0</ele><time>2026-04-17T23:07:45.225Z</time></trkpt><trkpt lat="44.6044487" lon="10.1993926"><ele>839.0</ele><time>2026-04-17T23:07:50.141Z</time></trkpt><trkpt lat="44.6045251" lon="10.199357"><ele>839.0</ele><time>2026-04-17T23:08:04.235Z</time></trkpt><trkpt lat="44.6046007" lon="10.1993503"><ele>839.0</ele><time>2026-04-17T23:08:10.088Z</time></trkpt><trkpt lat="44.6046721" lon="10.1993756"><ele>839.0</ele><time>2026-04-17T23:08:14.239Z</time></trkpt><trkpt lat="44.6047432" lon="10.1994037"><ele>839.0</ele><time>2026-04-17T23:08:19.204Z</time></trkpt><trkpt lat="44.604805" lon="10.1994352"><ele>839.0</ele><time>2026-04-17T23:08:25.249Z</time></trkpt><trkpt lat="44.6048565" lon="10.1994896"><ele>839.0</ele><time>2026-04-17T23:08:35.155Z</time></trkpt><trkpt lat="44.6048988" lon="10.1995737"><ele>839.0</ele><time>2026-04-17T23:08:40.188Z</time></trkpt><trkpt lat="44.6049388" lon="10.1996568"><ele>839.0</ele><time>2026-04-17T23:08:46.19Z</time></trkpt><trkpt lat="44.6049628" lon="10.1997427"><ele>839.0</ele><time>2026-04-17T23:08:50.94Z</time></trkpt><trkpt lat="44.6049965" lon="10.1998177"><ele>839.0</ele><time>2026-04-17T23:08:56.219Z</time></trkpt><trkpt lat="44.6049928" lon="10.1999106"><ele>839.0</ele><time>2026-04-17T23:09:06.166Z</time></trkpt><trkpt lat="44.6050765" lon="10.2000991"><ele>839.0</ele><time>2026-04-17T23:09:33.17Z</time></trkpt><trkpt lat="44.6051088" lon="10.2001933"><ele>839.0</ele><time>2026-04-17T23:09:42.137Z</time></trkpt><trkpt lat="44.6051625" lon="10.2002495"><ele>839.0</ele><time>2026-04-17T23:09:51.213Z</time></trkpt><trkpt lat="44.6051985" lon="10.2003221"><ele>839.0</ele><time>2026-04-17T23:10:01.166Z</time></trkpt><trkpt lat="44.6052492" lon="10.200392"><ele>839.0</ele><time>2026-04-17T23:10:08.137Z</time></trkpt><trkpt lat="44.6052985" lon="10.2004477"><ele>839.0</ele><time>2026-04-17T23:10:16.137Z</time></trkpt><trkpt lat="44.605353" lon="10.2004993"><ele>839.0</ele><time>2026-04-17T23:10:22.138Z</time></trkpt><trkpt lat="44.6054108" lon="10.2005566"><ele>836.1428571428571</ele><time>2026-04-17T23:10:30.203Z</time></trkpt><trkpt lat="44.6054754" lon="10.2005648"><ele>833.2857142857143</ele><time>2026-04-17T23:10:42.222Z</time></trkpt><trkpt lat="44.605541" lon="10.2005862"><ele>830.4285714285714</ele><time>2026-04-17T23:10:46.207Z</time></trkpt><trkpt lat="44.6056198" lon="10.2006169"><ele>827.5714285714286</ele><time>2026-04-17T23:10:50.199Z</time></trkpt><trkpt lat="44.6056716" lon="10.2006942"><ele>824.7142857142858</ele><time>2026-04-17T23:10:56.259Z</time></trkpt><trkpt lat="44.6057149" lon="10.2007674"><ele>821.8571428571429</ele><time>2026-04-17T23:11:03.848Z</time></trkpt><trkpt lat="44.6057679" lon="10.2008257"><ele>819.0</ele><time>2026-04-17T23:11:09.21Z</time></trkpt><trkpt lat="44.6059056" lon="10.2008535"><ele>819.0</ele><time>2026-04-17T23:12:10.177Z</time></trkpt><trkpt lat="44.6059729" lon="10.2008552"><ele>819.0</ele><time>2026-04-17T23:12:18.153Z</time></trkpt><trkpt lat="44.6060324" lon="10.2009103"><ele>819.0</ele><time>2026-04-17T23:12:33.079Z</time></trkpt><trkpt lat="44.6060913" lon="10.2009492"><ele>819.0</ele><time>2026-04-17T23:12:41.207Z</time></trkpt><trkpt lat="44.6061381" lon="10.2010099"><ele>819.0</ele><time>2026-04-17T23:12:49.183Z</time></trkpt><trkpt lat="44.6061933" lon="10.2010664"><ele>819.0</ele><time>2026-04-17T23:12:56.175Z</time></trkpt><trkpt lat="44.6062441" lon="10.2011271"><ele>819.0</ele><time>2026-04-17T23:13:04.163Z</time></trkpt><trkpt lat="44.6062867" lon="10.2011999"><ele>816.8571428571429</ele><time>2026-04-17T23:13:12.236Z</time></trkpt><trkpt lat="44.6063285" lon="10.2012775"><ele>814.7142857142858</ele><time>2026-04-17T23:13:22.18Z</time></trkpt><trkpt lat="44.606386" lon="10.2013247"><ele>812.5714285714286</ele><time>2026-04-17T23:13:27.206Z</time></trkpt><trkpt lat="44.6064399" lon="10.2013746"><ele>810.4285714285714</ele><time>2026-04-17T23:13:32.137Z</time></trkpt><trkpt lat="44.6064931" lon="10.2014417"><ele>808.2857142857143</ele><time>2026-04-17T23:13:37.149Z</time></trkpt><trkpt lat="44.6065223" lon="10.2015244"><ele>806.1428571428571</ele><time>2026-04-17T23:13:42.175Z</time></trkpt><trkpt lat="44.6065635" lon="10.2016064"><ele>804.0</ele><time>2026-04-17T23:13:50.151Z</time></trkpt><trkpt lat="44.6066127" lon="10.2016674"><ele>804.0</ele><time>2026-04-17T23:13:56.226Z</time></trkpt><trkpt lat="44.6066646" lon="10.2017303"><ele>804.0</ele><time>2026-04-17T23:14:03.153Z</time></trkpt><trkpt lat="44.6067096" lon="10.2017981"><ele>804.0</ele><time>2026-04-17T23:14:10.145Z</time></trkpt><trkpt lat="44.6067539" lon="10.2018779"><ele>804.0</ele><time>2026-04-17T23:14:16.155Z</time></trkpt><trkpt lat="44.6068001" lon="10.201939"><ele>804.0</ele><time>2026-04-17T23:14:23.244Z</time></trkpt><trkpt lat="44.6068514" lon="10.2020077"><ele>804.0</ele><time>2026-04-17T23:14:31.233Z</time></trkpt><trkpt lat="44.6069014" lon="10.2020805"><ele>804.0</ele><time>2026-04-17T23:14:38.663Z</time></trkpt><trkpt lat="44.6069565" lon="10.2021341"><ele>803.0</ele><time>2026-04-17T23:14:46.137Z</time></trkpt><trkpt lat="44.6070166" lon="10.2021678"><ele>802.0</ele><time>2026-04-17T23:14:54.178Z</time></trkpt><trkpt lat="44.6070813" lon="10.2021859"><ele>801.0</ele><time>2026-04-17T23:15:00.188Z</time></trkpt><trkpt lat="44.6071443" lon="10.2022278"><ele>800.0</ele><time>2026-04-17T23:15:04.231Z</time></trkpt><trkpt lat="44.6072151" lon="10.2022556"><ele>799.0</ele><time>2026-04-17T23:15:08.164Z</time></trkpt><trkpt lat="44.6072719" lon="10.2022961"><ele>798.0</ele><time>2026-04-17T23:15:15.157Z</time></trkpt><trkpt lat="44.607318" lon="10.2023613"><ele>797.0</ele><time>2026-04-17T23:15:22.261Z</time></trkpt><trkpt lat="44.607383" lon="10.2024115"><ele>797.0</ele><time>2026-04-17T23:15:29.086Z</time></trkpt><trkpt lat="44.6074238" lon="10.2024965"><ele>797.0</ele><time>2026-04-17T23:15:35.262Z</time></trkpt><trkpt lat="44.6074582" lon="10.2025719"><ele>797.0</ele><time>2026-04-17T23:15:41.162Z</time></trkpt><trkpt lat="44.6074723" lon="10.2026589"><ele>797.0</ele><time>2026-04-17T23:15:47.172Z</time></trkpt><trkpt lat="44.6075034" lon="10.2027409"><ele>797.0</ele><time>2026-04-17T23:15:54.165Z</time></trkpt><trkpt lat="44.6075407" lon="10.2028213"><ele>797.0</ele><time>2026-04-17T23:16:00.175Z</time></trkpt><trkpt lat="44.6075863" lon="10.2028904"><ele>797.0</ele><time>2026-04-17T23:16:04.253Z</time></trkpt><trkpt lat="44.6076348" lon="10.2029501"><ele>797.0</ele><time>2026-04-17T23:16:10.217Z</time></trkpt><trkpt lat="44.6076986" lon="10.2030024"><ele>797.0</ele><time>2026-04-17T23:16:18.193Z</time></trkpt><trkpt lat="44.6077494" lon="10.2030565"><ele>797.0</ele><time>2026-04-17T23:16:24.205Z</time></trkpt><trkpt lat="44.6077908" lon="10.2031314"><ele>797.0</ele><time>2026-04-17T23:16:30.213Z</time></trkpt><trkpt lat="44.6078427" lon="10.2031921"><ele>797.0</ele><time>2026-04-17T23:16:38.215Z</time></trkpt><trkpt lat="44.6078895" lon="10.2032715"><ele>797.0</ele><time>2026-04-17T23:16:44.198Z</time></trkpt><trkpt lat="44.6079163" lon="10.2033546"><ele>797.0</ele><time>2026-04-17T23:16:49.225Z</time></trkpt><trkpt lat="44.6079551" lon="10.2034319"><ele>794.7142857142857</ele><time>2026-04-17T23:16:57.183Z</time></trkpt><trkpt lat="44.6080074" lon="10.2035114"><ele>792.4285714285714</ele><time>2026-04-17T23:17:11.187Z</time></trkpt><trkpt lat="44.6080449" lon="10.2035939"><ele>790.1428571428571</ele><time>2026-04-17T23:17:22.703Z</time></trkpt><trkpt lat="44.6080911" lon="10.2036668"><ele>787.8571428571429</ele><time>2026-04-17T23:17:31.182Z</time></trkpt><trkpt lat="44.6081294" lon="10.2037461"><ele>785.5714285714287</ele><time>2026-04-17T23:17:38.175Z</time></trkpt><trkpt lat="44.6081635" lon="10.2038295"><ele>783.2857142857143</ele><time>2026-04-17T23:17:45.168Z</time></trkpt><trkpt lat="44.6081989" lon="10.203916"><ele>781.0</ele><time>2026-04-17T23:17:53.144Z</time></trkpt><trkpt lat="44.6082476" lon="10.2039759"><ele>780.7142857142858</ele><time>2026-04-17T23:18:03.197Z</time></trkpt><trkpt lat="44.6083037" lon="10.2040291"><ele>780.4285714285714</ele><time>2026-04-17T23:18:12.156Z</time></trkpt><trkpt lat="44.6083488" lon="10.2040938"><ele>780.1428571428571</ele><time>2026-04-17T23:18:21.226Z</time></trkpt><trkpt lat="44.6083799" lon="10.2041793"><ele>779.8571428571429</ele><time>2026-04-17T23:18:29.202Z</time></trkpt><trkpt lat="44.6084093" lon="10.2042765"><ele>779.5714285714286</ele><time>2026-04-17T23:18:36.195Z</time></trkpt><trkpt lat="44.6084299" lon="10.2043677"><ele>779.2857142857143</ele><time>2026-04-17T23:18:43.188Z</time></trkpt><trkpt lat="44.6084541" lon="10.2044553"><ele>779.0</ele><time>2026-04-17T23:18:48.236Z</time></trkpt><trkpt lat="44.6084682" lon="10.2045454"><ele>779.0000000000001</ele><time>2026-04-17T23:18:53.138Z</time></trkpt><trkpt lat="44.6084836" lon="10.2046317"><ele>779.0</ele><time>2026-04-17T23:18:58.158Z</time></trkpt><trkpt lat="44.6085284" lon="10.2047058"><ele>779.0</ele><time>2026-04-17T23:19:05.151Z</time></trkpt><trkpt lat="44.6085642" lon="10.2047817"><ele>779.0</ele><time>2026-04-17T23:19:14.22Z</time></trkpt><trkpt lat="44.6086053" lon="10.2048628"><ele>779.0</ele><time>2026-04-17T23:19:20.23Z</time></trkpt><trkpt lat="44.6086349" lon="10.2049456"><ele>779.0000000000001</ele><time>2026-04-17T23:19:27.223Z</time></trkpt><trkpt lat="44.6086675" lon="10.205026"><ele>779.0</ele><time>2026-04-17T23:19:32.14Z</time></trkpt><trkpt lat="44.6086844" lon="10.2051191"><ele>776.1428571428572</ele><time>2026-04-17T23:19:37.166Z</time></trkpt><trkpt lat="44.608732" lon="10.2051823"><ele>773.2857142857143</ele><time>2026-04-17T23:19:42.192Z</time></trkpt><trkpt lat="44.6087775" lon="10.2052554"><ele>770.4285714285714</ele><time>2026-04-17T23:19:48.202Z</time></trkpt><trkpt lat="44.6088416" lon="10.2053001"><ele>767.5714285714287</ele><time>2026-04-17T23:19:55.258Z</time></trkpt><trkpt lat="44.6088975" lon="10.2053606"><ele>764.7142857142857</ele><time>2026-04-17T23:20:01.205Z</time></trkpt><trkpt lat="44.6089527" lon="10.2054112"><ele>761.8571428571429</ele><time>2026-04-17T23:20:08.198Z</time></trkpt><trkpt lat="44.6090034" lon="10.2054791"><ele>759.0</ele><time>2026-04-17T23:20:14.208Z</time></trkpt><trkpt lat="44.6090639" lon="10.2055396"><ele>759.0</ele><time>2026-04-17T23:20:21.201Z</time></trkpt><trkpt lat="44.6091097" lon="10.2056076"><ele>759.0</ele><time>2026-04-17T23:20:26.227Z</time></trkpt><trkpt lat="44.6091496" lon="10.2056821"><ele>759.0</ele><time>2026-04-17T23:20:34.204Z</time></trkpt><trkpt lat="44.609137" lon="10.2057798"><ele>759.0</ele><time>2026-04-17T23:20:41.197Z</time></trkpt><trkpt lat="44.6091171" lon="10.2058714"><ele>759.0</ele><time>2026-04-17T23:20:47.206Z</time></trkpt><trkpt lat="44.6091218" lon="10.2059696"><ele>759.0</ele><time>2026-04-17T23:20:54.199Z</time></trkpt><trkpt lat="44.6091217" lon="10.2060664"><ele>759.0</ele><time>2026-04-17T23:21:02.176Z</time></trkpt><trkpt lat="44.6091113" lon="10.2061545"><ele>760.0</ele><time>2026-04-17T23:21:08.186Z</time></trkpt><trkpt lat="44.6091108" lon="10.2062613"><ele>761.0</ele><time>2026-04-17T23:21:13.079Z</time></trkpt><trkpt lat="44.609115" lon="10.2063593"><ele>762.0</ele><time>2026-04-17T23:21:18.238Z</time></trkpt><trkpt lat="44.6091195" lon="10.2064524"><ele>763.0</ele><time>2026-04-17T23:21:24.138Z</time></trkpt><trkpt lat="44.6090934" lon="10.2065423"><ele>764.0</ele><time>2026-04-17T23:21:31.138Z</time></trkpt><trkpt lat="44.609106" lon="10.206635"><ele>765.0</ele><time>2026-04-17T23:21:42.167Z</time></trkpt><trkpt lat="44.6091313" lon="10.2067361"><ele>766.0</ele><time>2026-04-17T23:21:50.143Z</time></trkpt><trkpt lat="44.6091332" lon="10.2068359"><ele>766.0</ele><time>2026-04-17T23:21:56.153Z</time></trkpt><trkpt lat="44.6091592" lon="10.2069583"><ele>766.0</ele><time>2026-04-17T23:22:18.987Z</time></trkpt><trkpt lat="44.609127" lon="10.2070473"><ele>766.0</ele><time>2026-04-17T23:22:24.126Z</time></trkpt><trkpt lat="44.6090759" lon="10.2071114"><ele>766.0</ele><time>2026-04-17T23:22:30.052Z</time></trkpt><trkpt lat="44.6090225" lon="10.2071731"><ele>766.0</ele><time>2026-04-17T23:22:38.221Z</time></trkpt><trkpt lat="44.6089603" lon="10.2072058"><ele>766.0</ele><time>2026-04-17T23:22:45.214Z</time></trkpt><trkpt lat="44.6088918" lon="10.2072522"><ele>766.0</ele><time>2026-04-17T23:22:51.224Z</time></trkpt><trkpt lat="44.6088622" lon="10.2073379"><ele>764.1428571428571</ele><time>2026-04-17T23:22:57.557Z</time></trkpt><trkpt lat="44.6088162" lon="10.2074009"><ele>762.2857142857142</ele><time>2026-04-17T23:23:10.098Z</time></trkpt><trkpt lat="44.6087618" lon="10.2074484"><ele>760.4285714285714</ele><time>2026-04-17T23:23:18.213Z</time></trkpt><trkpt lat="44.6087175" lon="10.2075166"><ele>758.5714285714286</ele><time>2026-04-17T23:23:27.173Z</time></trkpt><trkpt lat="44.6086565" lon="10.2075513"><ele>756.7142857142858</ele><time>2026-04-17T23:23:34.178Z</time></trkpt><trkpt lat="44.6085971" lon="10.2075916"><ele>754.8571428571429</ele><time>2026-04-17T23:23:43.326Z</time></trkpt><trkpt lat="44.608545" lon="10.2076623"><ele>753.0</ele><time>2026-04-17T23:23:51.212Z</time></trkpt><trkpt lat="44.6084953" lon="10.2077255"><ele>751.8571428571429</ele><time>2026-04-17T23:24:01.202Z</time></trkpt><trkpt lat="44.6084368" lon="10.2077812"><ele>750.7142857142858</ele><time>2026-04-17T23:24:08.22Z</time></trkpt><trkpt lat="44.6083833" lon="10.207832"><ele>749.5714285714286</ele><time>2026-04-17T23:24:20.168Z</time></trkpt><trkpt lat="44.6083894" lon="10.2079201"><ele>748.4285714285714</ele><time>2026-04-17T23:24:27.098Z</time></trkpt><trkpt lat="44.6083961" lon="10.2080141"><ele>747.2857142857142</ele><time>2026-04-17T23:24:34.154Z</time></trkpt><trkpt lat="44.6083675" lon="10.2081022"><ele>746.1428571428571</ele><time>2026-04-17T23:24:42.24Z</time></trkpt><trkpt lat="44.6083255" lon="10.2081689"><ele>745.0</ele><time>2026-04-17T23:24:50.217Z</time></trkpt><trkpt lat="44.6082622" lon="10.2082152"><ele>743.5</ele><time>2026-04-17T23:25:00.196Z</time></trkpt><trkpt lat="44.6082342" lon="10.2082951"><ele>742.0</ele><time>2026-04-17T23:25:07.153Z</time></trkpt><trkpt lat="44.6082013" lon="10.208386"><ele>740.5</ele><time>2026-04-17T23:25:15.221Z</time></trkpt><trkpt lat="44.6081785" lon="10.2084713"><ele>739.0</ele><time>2026-04-17T23:25:24.199Z</time></trkpt><trkpt lat="44.6080946" lon="10.2085719"><ele>737.5</ele><time>2026-04-17T23:25:51.195Z</time></trkpt><trkpt lat="44.6080361" lon="10.2086348"><ele>736.0</ele><time>2026-04-17T23:25:57.198Z</time></trkpt><trkpt lat="44.6079761" lon="10.2086806"><ele>736.0</ele><time>2026-04-17T23:26:02.097Z</time></trkpt><trkpt lat="44.6079222" lon="10.2087312"><ele>736.0</ele><time>2026-04-17T23:26:10.201Z</time></trkpt><trkpt lat="44.6078706" lon="10.2087857"><ele>736.0</ele><time>2026-04-17T23:26:19.138Z</time></trkpt><trkpt lat="44.6077968" lon="10.2088719"><ele>716.0</ele><time>2026-04-17T23:26:49.209Z</time></trkpt><trkpt lat="44.6077378" lon="10.208937"><ele>716.0</ele><time>2026-04-17T23:26:53.143Z</time></trkpt><trkpt lat="44.6077233" lon="10.2090312"><ele>709.0</ele><time>2026-04-17T23:26:57.186Z</time></trkpt></trkseg></trk></gpx>